»·PEaware :: N65GP KAMA-KLBB

N65GP :: KAMA-KLBB

FLIGHT INFORMATION

Flight Status: Arrived
Operator: Privately registered:
United States
More flights under this callsign
Pilot: Tom L. (6372)
Aircraft: CESSNA 182 SKYLANE
(C182)
More flights by this aircraft type
Origin: KAMA Amarillo Intl
United States
Destination: KLBB Lubbock Intl
United States
More flights between these airports :: More routes between these airports
Route: YOCAN V81 ZONLO
File this flight plan on PilotEdge
Remarks:
Altitude:
(Current/Filed)
7,000ft
Speed:
(Current/Filed)
135kts
Departed: 30-Sep-17 10:55 AM
Arrived: 30-Sep-17 11:44 AM
Distance/Time
Traveled:
804nm/0:49
Distance/Time
To Go:
Arrived

Flight Plot

Page will automatically refresh every two minutes.

Flight plan parsing failed; only flown route is shown


Map Options




Map Legend


Flown Route
Filed Route
Departure Airport
Arrival Airport
Navaid (VOR, NDB)
Fix

Horizontal Profiles

Position Reports

Time Latitude Longitude Heading Altitude Ground
Speed
30-Sep-17 10:44 35.220069 -101.702929 135 3610ft 0kts
30-Sep-17 10:45 35.220069 -101.702929 135 3610ft 0kts
30-Sep-17 10:46 35.220067 -101.702927 135 3610ft 0kts
30-Sep-17 10:47 35.220065 -101.702924 135 3610ft 0kts
30-Sep-17 10:48 35.220061 -101.702920 135 3610ft 0kts
30-Sep-17 10:49 35.220058 -101.702916 135 3610ft 0kts
30-Sep-17 10:50 35.220055 -101.702912 135 3610ft 0kts
30-Sep-17 10:51 35.220052 -101.702909 135 3610ft 0kts
30-Sep-17 10:52 35.220049 -101.702905 135 3610ft 0kts
30-Sep-17 10:53 35.220248 -101.702661 280 3610ft 6kts
30-Sep-17 10:54 35.221790 -101.705044 309 3610ft 16kts
30-Sep-17 10:55 35.225821 -101.702793 47 3610ft 23kts
30-Sep-17 10:56 35.229080 -101.698760 342 3610ft 5kts
30-Sep-17 10:57 35.229551 -101.699176 318 3610ft 0kts
30-Sep-17 10:58 35.230245 -101.699881 318 3610ft 12kts
30-Sep-17 10:59 35.223192 -101.711477 222 3852ft 74kts
30-Sep-17 11:00 35.207519 -101.727941 220 4609ft 77kts
30-Sep-17 11:01 35.189461 -101.744717 207 5247ft 80kts
30-Sep-17 11:02 35.168114 -101.743647 150 5834ft 85kts
30-Sep-17 11:03 35.147550 -101.735498 181 6420ft 79kts
30-Sep-17 11:04 35.125684 -101.735299 183 6964ft 81kts
30-Sep-17 11:05 35.098666 -101.735479 182 7001ft 111kts
30-Sep-17 11:06 35.066128 -101.735687 182 6994ft 120kts
30-Sep-17 11:07 35.033013 -101.735903 182 6979ft 121kts
30-Sep-17 11:08 34.999108 -101.736115 182 6979ft 121kts
30-Sep-17 11:09 34.965209 -101.736322 182 6981ft 122kts
30-Sep-17 11:10 34.931268 -101.736557 182 6980ft 121kts
30-Sep-17 11:11 34.897404 -101.736772 182 6982ft 122kts
30-Sep-17 11:12 34.863467 -101.736987 182 6981ft 122kts
30-Sep-17 11:13 34.829380 -101.737216 182 6984ft 122kts
30-Sep-17 11:14 34.795559 -101.737417 182 6985ft 121kts
30-Sep-17 11:15 34.761360 -101.737643 182 6985ft 123kts
30-Sep-17 11:16 34.727349 -101.739552 185 6984ft 122kts
30-Sep-17 11:17 34.693348 -101.742350 185 6985ft 122kts
30-Sep-17 11:18 34.659476 -101.745055 185 6987ft 122kts
30-Sep-17 11:19 34.625814 -101.749638 192 6988ft 121kts
30-Sep-17 11:20 34.591929 -101.752012 182 6987ft 122kts
30-Sep-17 11:21 34.557774 -101.753389 184 6988ft 122kts
30-Sep-17 11:22 34.523732 -101.755847 185 6980ft 122kts
30-Sep-17 11:23 34.490345 -101.758444 185 6980ft 122kts
30-Sep-17 11:24 34.456250 -101.761127 185 6980ft 122kts
30-Sep-17 11:25 34.422318 -101.763802 185 6980ft 122kts
30-Sep-17 11:26 34.388226 -101.766488 185 6980ft 122kts
30-Sep-17 11:27 34.354263 -101.769163 185 6979ft 123kts
30-Sep-17 11:28 34.319975 -101.771860 185 6980ft 123kts
30-Sep-17 11:29 34.285622 -101.774562 185 6946ft 125kts
30-Sep-17 11:30 34.248306 -101.777509 184 6385ft 139kts
30-Sep-17 11:31 34.211366 -101.780394 184 6250ft 126kts
30-Sep-17 11:32 34.178016 -101.783008 184 6260ft 123kts
30-Sep-17 11:33 34.143902 -101.785673 184 6260ft 123kts
30-Sep-17 11:34 34.125628 -101.787103 184 6260ft 123kts
30-Sep-17 11:35 34.090465 -101.790562 199 5998ft 132kts
30-Sep-17 11:36 34.065050 -101.822741 209 5609ft 135kts
30-Sep-17 11:37 34.028696 -101.833510 187 5242ft 139kts
30-Sep-17 11:38 33.990418 -101.837638 175 5074ft 134kts
30-Sep-17 11:39 33.952829 -101.837707 173 4939ft 141kts
30-Sep-17 11:40 33.914549 -101.832583 171 4680ft 141kts
30-Sep-17 11:41 33.877020 -101.829450 178 4675ft 132kts
30-Sep-17 11:42 33.840314 -101.829277 178 4683ft 131kts
30-Sep-17 11:43 33.803774 -101.829253 178 4680ft 131kts
30-Sep-17 11:44 33.767063 -101.829131 179 4678ft 131kts
30-Sep-17 11:45 33.729100 -101.829046 177 4275ft 144kts
30-Sep-17 11:46 33.691984 -101.829408 177 3507ft 129kts
30-Sep-17 11:47 33.662953 -101.828957 177 3303ft 57kts
30-Sep-17 11:48 33.656598 -101.828803 181 3285ft 0kts
30-Sep-17 11:49 33.656593 -101.828803 181 3285ft 0kts
30-Sep-17 11:50 33.656587 -101.828804 181 3285ft 0kts
30-Sep-17 11:51 33.656582 -101.828804 181 3285ft 0kts
30-Sep-17 11:52 33.656577 -101.828804 181 3285ft 0kts
30-Sep-17 11:53 33.656571 -101.828804 181 3285ft 0kts
30-Sep-17 11:54 33.656566 -101.828804 181 3285ft 0kts
30-Sep-17 11:55 33.656560 -101.828805 181 3285ft 0kts
30-Sep-17 11:56 33.656559 -101.828805 181 3285ft 0kts
30-Sep-17 11:57 33.656559 -101.828805 181 3285ft 0kts
30-Sep-17 11:58 33.671136 -117.873914 209 59ft 0kts
30-Sep-17 11:59 33.671136 -117.873914 209 59ft 0kts
30-Sep-17 12:00 33.671136 -117.873914 209 59ft 0kts
30-Sep-17 12:01 33.671136 -117.873914 209 59ft 0kts
30-Sep-17 12:02 33.671136 -117.873914 209 59ft 0kts
30-Sep-17 12:03 33.671136 -117.873914 209 59ft 0kts

Navigation Log

Ident Type
Flight plan parsing failed, navigation log unavailable